createdAt,value
2022-09-28T00:00:20.290Z,18.30
2022-09-28T00:02:23.088Z,30.30
2022-09-28T00:04:25.895Z,19.90
2022-09-28T00:06:30.982Z,25.63
2022-09-28T00:08:34.956Z,30.40
2022-09-28T00:10:37.624Z,18.83
2022-09-28T00:12:40.393Z,18.90
2022-09-28T00:14:44.802Z,21.73
2022-09-28T00:16:48.535Z,22.63
2022-09-28T00:18:52.242Z,30.30
2022-09-28T00:21:01.590Z,19.13
2022-09-28T00:23:04.293Z,22.77
2022-09-28T00:25:07.961Z,19.00
2022-09-28T00:27:10.658Z,20.60
2022-09-28T00:29:22.153Z,20.47
2022-09-28T00:31:26.404Z,21.83
2022-09-28T00:33:29.144Z,19.00
2022-09-28T00:35:31.838Z,22.93
2022-09-28T00:37:34.542Z,23.50
2022-09-28T00:39:38.301Z,21.50
2022-09-28T00:41:41.065Z,22.53
2022-09-28T00:43:43.746Z,17.60
2022-09-28T00:45:46.529Z,26.73
2022-09-28T00:47:51.519Z,24.50
2022-09-28T00:49:56.001Z,20.00
2022-09-28T00:51:58.703Z,23.50
2022-09-28T00:54:01.382Z,23.90
2022-09-28T00:56:07.377Z,25.73
2022-09-28T00:58:11.489Z,27.60
2022-09-28T01:00:14.777Z,34.23
2022-09-28T01:02:17.536Z,23.43
2022-09-28T01:04:21.625Z,22.80
2022-09-28T01:06:27.418Z,23.30
2022-09-28T01:08:30.711Z,22.30
2022-09-28T01:10:33.416Z,25.00
2022-09-28T01:12:36.125Z,22.93
2022-09-28T01:14:38.981Z,24.63
2022-09-28T01:16:43.200Z,21.47
2022-09-28T01:18:48.631Z,20.60
2022-09-28T01:20:58.118Z,19.13
2022-09-28T01:23:24.539Z,23.30
2022-09-28T01:25:31.385Z,24.87
2022-09-28T01:27:36.104Z,23.30
2022-09-28T01:29:44.749Z,34.20
2022-09-28T01:31:49.607Z,16.63
2022-09-28T01:33:56.534Z,19.40
2022-09-28T01:36:03.646Z,26.17
2022-09-28T01:38:07.654Z,16.60
2022-09-28T01:40:10.471Z,17.23
2022-09-28T01:42:15.487Z,19.00
2022-09-28T01:44:20.175Z,21.73
2022-09-28T01:46:23.442Z,18.13
2022-09-28T01:48:29.997Z,19.73
2022-09-28T01:50:36.225Z,23.63
2022-09-28T01:52:41.385Z,21.10
2022-09-28T01:54:45.948Z,16.73
2022-09-28T01:56:50.211Z,19.13
2022-09-28T01:58:54.293Z,15.17
2022-09-28T02:01:00.904Z,16.73
2022-09-28T02:03:09.542Z,18.13
2022-09-28T02:05:14.682Z,14.70
2022-09-28T02:07:19.197Z,15.57
2022-09-28T02:09:23.097Z,18.43
2022-09-28T02:11:25.813Z,23.37
2022-09-28T02:13:30.631Z,14.63
2022-09-28T02:15:36.297Z,15.83
2022-09-28T02:17:40.583Z,16.05
2022-09-28T02:19:43.260Z,16.83
2022-09-28T02:21:48.758Z,13.50
2022-09-28T02:23:53.388Z,16.47
2022-09-28T02:25:59.911Z,14.70
2022-09-28T02:28:03.410Z,14.77
2022-09-28T02:30:06.854Z,16.90
2022-09-28T02:32:09.562Z,23.60
2022-09-28T02:34:13.579Z,16.30
2022-09-28T02:36:16.263Z,14.00
2022-09-28T02:38:18.973Z,18.20
2022-09-28T02:40:22.907Z,18.67
2022-09-28T02:42:26.273Z,19.50
2022-09-28T02:44:50.470Z,18.23
2022-09-28T02:46:55.065Z,14.57
2022-09-28T02:49:21.321Z,17.93
2022-09-28T02:51:35.872Z,17.93
2022-09-28T02:53:46.999Z,14.30
2022-09-28T02:55:56.668Z,16.60
2022-09-28T02:58:19.958Z,19.03
2022-09-28T03:00:23.179Z,17.27
2022-09-28T03:02:29.000Z,18.17
2022-09-28T03:04:34.609Z,24.37
2022-09-28T03:06:41.304Z,17.03
2022-09-28T03:08:45.457Z,16.70
2022-09-28T03:10:49.658Z,21.90
2022-09-28T03:12:52.383Z,18.03
2022-09-28T03:15:07.490Z,20.60
2022-09-28T03:17:10.185Z,15.03
2022-09-28T03:19:13.178Z,18.40
2022-09-28T03:21:16.441Z,24.00
2022-09-28T03:23:24.739Z,17.40
2022-09-28T03:25:27.917Z,18.07
2022-09-28T03:27:30.614Z,19.63
2022-09-28T03:29:34.379Z,20.50
2022-09-28T03:31:37.115Z,19.92
2022-09-28T03:33:39.885Z,20.97
2022-09-28T03:35:42.625Z,19.43
2022-09-28T03:37:45.381Z,25.83
2022-09-28T03:39:49.401Z,17.50
2022-09-28T03:41:52.091Z,17.23
2022-09-28T03:43:54.884Z,18.23
2022-09-28T03:45:58.367Z,20.00
2022-09-28T03:48:01.220Z,18.97
2022-09-28T03:50:03.985Z,16.83
2022-09-28T03:52:06.753Z,23.77
2022-09-28T03:54:09.632Z,20.17
2022-09-28T03:56:14.513Z,19.33
2022-09-28T03:58:17.406Z,22.37
2022-09-28T04:00:20.694Z,18.67
2022-09-28T04:02:23.446Z,31.43
2022-09-28T04:04:26.158Z,20.73
2022-09-28T04:06:29.189Z,21.50
2022-09-28T04:08:31.883Z,24.37
2022-09-28T04:10:34.571Z,24.53
2022-09-28T04:12:38.611Z,22.43
2022-09-28T04:14:41.295Z,29.33
2022-09-28T04:16:44.203Z,29.33
2022-09-28T04:18:47.678Z,21.03
2022-09-28T04:20:59.210Z,26.17
2022-09-28T04:23:01.906Z,21.23
2022-09-28T04:25:04.868Z,19.03
2022-09-28T04:27:25.092Z,21.77
2022-09-28T04:29:29.095Z,22.60
2022-09-28T04:31:31.843Z,24.97
2022-09-28T04:33:34.606Z,20.90
2022-09-28T04:35:37.286Z,30.53
2022-09-28T04:37:40.198Z,21.83
2022-09-28T04:39:47.493Z,25.17
2022-09-28T04:41:51.139Z,27.50
2022-09-28T04:43:53.890Z,21.37
2022-09-28T04:46:01.080Z,19.43
2022-09-28T04:48:03.826Z,19.97
2022-09-28T04:50:07.372Z,27.03
2022-09-28T04:52:12.551Z,18.43
2022-09-28T04:54:18.707Z,19.37
2022-09-28T04:56:21.402Z,18.00
2022-09-28T04:58:24.270Z,21.10
2022-09-28T05:00:27.006Z,30.80
2022-09-28T05:02:31.113Z,25.90
2022-09-28T05:04:33.855Z,30.17
2022-09-28T05:06:36.534Z,24.83
2022-09-28T05:08:39.217Z,23.50
2022-09-28T05:10:41.896Z,25.50
2022-09-28T05:12:44.597Z,21.90
2022-09-28T05:14:47.323Z,24.90
2022-09-28T05:16:50.142Z,24.30
2022-09-28T05:18:57.025Z,28.00
2022-09-28T05:20:59.794Z,21.53
2022-09-28T05:23:02.481Z,28.20
2022-09-28T05:25:05.640Z,28.80
2022-09-28T05:27:08.334Z,23.73
2022-09-28T05:29:11.243Z,27.92
2022-09-28T05:31:13.992Z,27.43
2022-09-28T05:33:16.681Z,28.17
2022-09-28T05:35:20.994Z,23.10
2022-09-28T05:37:23.669Z,23.23
2022-09-28T05:39:26.363Z,26.10
2022-09-28T05:41:29.302Z,24.07
2022-09-28T05:43:32.818Z,19.90
2022-09-28T05:45:35.536Z,24.93
2022-09-28T05:47:38.874Z,19.33
2022-09-28T05:49:42.458Z,23.77
2022-09-28T05:51:46.479Z,29.23
2022-09-28T05:53:49.180Z,24.37
2022-09-28T05:55:51.855Z,26.77
2022-09-28T05:57:54.940Z,26.05
2022-09-28T05:59:57.618Z,25.17
2022-09-28T06:02:00.354Z,21.17
2022-09-28T06:04:03.091Z,23.30
2022-09-28T06:06:05.877Z,28.90
2022-09-28T06:08:10.682Z,24.60
2022-09-28T06:10:13.421Z,22.33
2022-09-28T06:12:16.680Z,24.77
2022-09-28T06:14:19.421Z,26.93
2022-09-28T06:16:22.164Z,24.47
2022-09-28T06:18:24.913Z,27.40
2022-09-28T06:20:27.825Z,19.90
2022-09-28T06:22:30.514Z,27.63
2022-09-28T06:24:34.567Z,20.33
2022-09-28T06:26:37.241Z,26.03
2022-09-28T06:28:39.933Z,23.43
2022-09-28T06:30:43.240Z,20.93
2022-09-28T06:32:45.944Z,21.50
2022-09-28T06:34:50.742Z,24.97
2022-09-28T06:36:56.767Z,18.00
2022-09-28T06:38:59.469Z,18.60
2022-09-28T06:41:03.536Z,21.83
2022-09-28T06:43:10.174Z,21.87
2022-09-28T06:45:13.450Z,18.90
2022-09-28T06:47:16.373Z,20.53
2022-09-28T06:49:19.668Z,21.00
2022-09-28T06:51:22.488Z,19.13
2022-09-28T06:53:25.518Z,17.80
2022-09-28T06:55:28.419Z,16.10
2022-09-28T06:57:32.506Z,16.23
2022-09-28T06:59:35.210Z,18.77
2022-09-28T07:01:37.946Z,16.07
2022-09-28T07:03:40.733Z,20.17
2022-09-28T07:05:44.420Z,29.20
2022-09-28T07:07:47.558Z,33.10
2022-09-28T07:09:55.340Z,21.97
2022-09-28T07:11:59.236Z,19.40
2022-09-28T07:14:03.270Z,24.03
2022-09-28T07:16:06.165Z,17.17
2022-09-28T07:18:08.979Z,17.07
2022-09-28T07:20:18.871Z,11.20
2022-09-28T07:22:36.283Z,12.57
2022-09-28T07:24:44.607Z,13.33
2022-09-28T07:26:47.281Z,15.33
2022-09-28T07:28:49.983Z,10.40
2022-09-28T07:30:54.028Z,13.80
2022-09-28T07:32:56.762Z,10.17
2022-09-28T07:34:59.449Z,9.87
2022-09-28T07:37:02.183Z,8.90
2022-09-28T07:39:05.019Z,9.30
2022-09-28T07:41:14.059Z,14.57
2022-09-28T07:43:20.633Z,8.83
2022-09-28T07:45:24.474Z,16.23
2022-09-28T07:47:33.851Z,9.23
2022-09-28T07:49:37.659Z,12.43
2022-09-28T07:51:40.558Z,10.70
2022-09-28T07:53:43.253Z,8.70
2022-09-28T07:55:51.022Z,10.60
2022-09-28T07:57:56.247Z,8.60
2022-09-28T08:00:00.194Z,8.93
2022-09-28T08:02:02.963Z,7.03
2022-09-28T08:04:07.033Z,8.90
2022-09-28T08:06:12.552Z,5.70
2022-09-28T08:08:15.269Z,6.60
2022-09-28T08:10:18.148Z,8.80
2022-09-28T08:12:21.104Z,5.90
2022-09-28T08:14:24.640Z,9.70
2022-09-28T08:16:28.765Z,8.33
2022-09-28T08:18:31.798Z,9.33
2022-09-28T08:20:53.483Z,7.23
2022-09-28T08:22:56.798Z,6.50
2022-09-28T08:24:59.507Z,21.93
2022-09-28T08:27:02.198Z,11.00
2022-09-28T08:29:05.006Z,6.30
2022-09-28T08:31:07.794Z,3.40
2022-09-28T08:33:10.525Z,5.73
2022-09-28T08:35:13.252Z,4.67
2022-09-28T08:37:17.260Z,3.97
2022-09-28T08:39:19.990Z,5.53
2022-09-28T08:41:27.808Z,3.90
2022-09-28T08:43:44.608Z,5.03
2022-09-28T08:45:47.336Z,3.20
2022-09-28T08:48:24.484Z,2.90
2022-09-28T08:50:28.758Z,2.97
2022-09-28T08:52:34.454Z,3.30
2022-09-28T08:54:39.662Z,12.30
2022-09-28T08:56:43.728Z,3.10
2022-09-28T08:58:48.163Z,3.83
2022-09-28T09:00:51.959Z,4.50
2022-09-28T09:02:54.845Z,2.83
2022-09-28T09:04:57.784Z,5.20
2022-09-28T09:07:11.139Z,4.30
2022-09-28T09:09:18.367Z,4.17
2022-09-28T09:11:29.812Z,3.90
2022-09-28T09:13:54.750Z,3.33
2022-09-28T09:15:58.596Z,5.13
2022-09-28T09:18:08.595Z,5.30
2022-09-28T09:20:17.860Z,4.90
2022-09-28T09:22:27.260Z,4.17
2022-09-28T09:24:35.370Z,4.20
2022-09-28T09:26:39.526Z,5.27
2022-09-28T09:29:01.451Z,4.10
2022-09-28T09:31:09.402Z,3.70
2022-09-28T09:33:41.494Z,4.30
2022-09-28T09:35:59.753Z,2.47
2022-09-28T09:38:11.403Z,2.50
2022-09-28T09:40:26.183Z,2.57
2022-09-28T09:42:38.400Z,3.47
2022-09-28T09:45:09.463Z,4.83
2022-09-28T09:47:13.439Z,8.00
2022-09-28T09:49:17.249Z,3.63
2022-09-28T09:51:24.880Z,3.27
2022-09-28T09:53:29.713Z,10.73
2022-09-28T09:55:37.124Z,6.60
2022-09-28T09:57:41.118Z,3.90
2022-09-28T09:59:44.489Z,3.63
2022-09-28T10:01:47.400Z,4.07
2022-09-28T10:03:50.154Z,2.47
2022-09-28T10:05:56.171Z,2.67
2022-09-28T10:08:01.711Z,3.20
2022-09-28T10:10:04.802Z,3.63
2022-09-28T10:12:11.872Z,3.20
2022-09-28T10:14:16.679Z,4.20
2022-09-28T10:16:19.590Z,3.37
2022-09-28T10:18:22.369Z,3.33
2022-09-28T10:20:25.573Z,10.13
2022-09-28T10:22:28.674Z,5.43
2022-09-28T10:24:32.329Z,4.93
2022-09-28T10:26:36.478Z,4.67
2022-09-28T10:28:44.166Z,5.43
2022-09-28T10:30:46.917Z,2.67
2022-09-28T10:32:50.350Z,3.90
2022-09-28T10:34:54.908Z,4.37
2022-09-28T10:37:00.442Z,6.87
2022-09-28T10:39:03.129Z,8.13
2022-09-28T10:41:10.550Z,4.20
2022-09-28T10:43:19.640Z,5.67
2022-09-28T10:45:24.104Z,5.30
2022-09-28T10:47:27.783Z,3.43
2022-09-28T10:49:31.349Z,4.03
2022-09-28T10:51:43.355Z,4.83
2022-09-28T10:53:59.555Z,5.67
2022-09-28T10:56:03.399Z,4.03
2022-09-28T10:58:26.808Z,4.50
2022-09-28T11:00:36.091Z,4.67
2022-09-28T11:02:38.995Z,2.80
2022-09-28T11:04:42.458Z,5.70
2022-09-28T11:06:45.394Z,2.37
2022-09-28T11:08:48.074Z,3.17
2022-09-28T11:10:50.769Z,5.90
2022-09-28T11:12:53.481Z,2.67
2022-09-28T11:15:00.158Z,2.13
2022-09-28T11:17:24.979Z,3.27
2022-09-28T11:19:28.948Z,3.47
2022-09-28T11:21:32.386Z,3.03
2022-09-28T11:23:35.079Z,2.20
2022-09-28T11:25:37.774Z,1.90
2022-09-28T11:27:40.459Z,2.23
2022-09-28T11:29:43.951Z,2.13
2022-09-28T11:31:46.635Z,1.90
2022-09-28T11:33:50.646Z,2.63
2022-09-28T11:35:57.066Z,2.43
2022-09-28T11:38:09.970Z,2.80
2022-09-28T11:40:22.004Z,2.33
2022-09-28T11:42:30.555Z,2.57
2022-09-28T11:44:41.280Z,5.23
2022-09-28T11:46:48.655Z,4.70
2022-09-28T11:48:55.008Z,4.40
2022-09-28T11:50:59.295Z,4.10
2022-09-28T11:53:10.089Z,2.80
2022-09-28T11:55:15.075Z,3.30
2022-09-28T11:57:19.297Z,1.83
2022-09-28T11:59:25.909Z,3.20
2022-09-28T12:01:30.070Z,2.93
2022-09-28T12:03:36.783Z,5.07
2022-09-28T12:05:42.245Z,2.67
2022-09-28T12:07:46.099Z,2.23
2022-09-28T12:09:51.106Z,2.63
2022-09-28T12:11:55.582Z,3.53
2022-09-28T12:13:58.362Z,4.23
2022-09-28T12:16:38.980Z,3.40
2022-09-28T12:18:26.886Z,2.23
2022-09-28T12:20:31.654Z,2.70
2022-09-28T12:22:38.042Z,3.53
2022-09-28T12:24:43.042Z,3.50
2022-09-28T12:26:48.349Z,2.70
2022-09-28T12:28:51.494Z,2.73
2022-09-28T12:30:54.238Z,2.50
2022-09-28T12:32:58.208Z,2.73
2022-09-28T12:35:00.898Z,3.47
2022-09-28T12:37:16.665Z,5.13
2022-09-28T12:39:58.461Z,3.13
2022-09-28T12:42:08.937Z,2.43
2022-09-28T12:44:26.289Z,3.50
2022-09-28T12:46:42.047Z,2.80
2022-09-28T12:49:51.531Z,2.80
2022-09-28T12:51:37.866Z,2.70
2022-09-28T12:53:50.714Z,5.90
2022-09-28T12:55:58.387Z,4.40
2022-09-28T12:58:04.126Z,4.03
2022-09-28T13:00:09.485Z,57.73
2022-09-28T13:02:27.628Z,11.03
2022-09-28T13:04:47.241Z,3.60
2022-09-28T13:06:56.954Z,2.67
2022-09-28T13:09:13.047Z,1.70
2022-09-28T13:11:18.896Z,3.70
2022-09-28T13:13:29.130Z,3.00
2022-09-28T13:15:36.715Z,1.97
2022-09-28T13:17:46.878Z,2.10
2022-09-28T13:19:51.827Z,2.33
2022-09-28T13:21:57.784Z,2.43
2022-09-28T13:24:20.728Z,1.93
2022-09-28T13:26:27.104Z,2.50
2022-09-28T13:28:29.866Z,1.90
2022-09-28T13:30:33.090Z,2.70
2022-09-28T13:32:36.902Z,3.17
2022-09-28T13:34:39.597Z,11.33
2022-09-28T13:36:47.258Z,6.80
2022-09-28T13:38:52.082Z,2.60
2022-09-28T13:41:14.737Z,3.20
2022-09-28T13:43:21.506Z,9.80
2022-09-28T13:45:34.154Z,39.20
2022-09-28T13:47:56.115Z,6.20
2022-09-28T13:50:04.844Z,9.43
2022-09-28T13:52:08.722Z,3.60
2022-09-28T13:54:51.320Z,6.67
2022-09-28T13:56:57.111Z,3.77
2022-09-28T13:59:02.385Z,3.33
2022-09-28T14:01:07.759Z,3.70
2022-09-28T14:03:14.914Z,3.80
2022-09-28T14:05:46.317Z,3.27
2022-09-28T14:07:59.637Z,2.67
2022-09-28T14:10:18.283Z,2.73
2022-09-28T14:12:43.217Z,5.03
2022-09-28T14:14:49.767Z,3.03
2022-09-28T14:16:53.191Z,3.70
2022-09-28T14:18:56.645Z,3.10
2022-09-28T14:21:13.370Z,6.73
2022-09-28T14:23:27.078Z,3.60
2022-09-28T14:25:31.693Z,2.80
2022-09-28T14:28:02.033Z,3.73
2022-09-28T14:30:18.568Z,8.60
2022-09-28T14:32:25.395Z,4.70
2022-09-28T14:34:34.115Z,4.43
2022-09-28T14:36:56.596Z,4.83
2022-09-28T14:39:17.041Z,3.33
2022-09-28T14:41:28.680Z,3.73
2022-09-28T14:43:36.621Z,5.37
2022-09-28T14:45:44.261Z,26.17
2022-09-28T14:48:05.746Z,8.13
2022-09-28T14:50:19.416Z,5.30
2022-09-28T14:52:40.347Z,3.93
2022-09-28T14:54:49.926Z,3.83
2022-09-28T14:57:08.113Z,20.73
2022-09-28T14:59:11.986Z,4.83
2022-09-28T15:01:20.041Z,4.90
2022-09-28T15:03:22.800Z,4.17
2022-09-28T15:05:28.272Z,5.10
2022-09-28T15:07:34.238Z,4.87
2022-09-28T15:09:37.960Z,4.53
2022-09-28T15:11:41.624Z,4.57
2022-09-28T15:13:44.377Z,4.53
2022-09-28T15:15:50.381Z,3.93
2022-09-28T15:17:59.146Z,8.03
2022-09-28T15:20:10.926Z,4.67
2022-09-28T15:22:17.156Z,3.93
2022-09-28T15:24:31.391Z,3.77
2022-09-28T15:26:34.345Z,4.60
2022-09-28T15:28:39.253Z,7.27
2022-09-28T15:30:41.998Z,5.20
2022-09-28T15:32:44.730Z,3.10
2022-09-28T15:34:56.766Z,3.60
2022-09-28T15:36:59.447Z,4.47
2022-09-28T15:39:02.694Z,4.70
2022-09-28T15:41:06.220Z,5.73
2022-09-28T15:43:26.736Z,6.20
2022-09-28T15:45:31.997Z,11.13
2022-09-28T15:47:35.274Z,4.53
2022-09-28T15:49:41.159Z,5.57
2022-09-28T15:51:49.510Z,3.60
2022-09-28T15:53:55.996Z,9.30
2022-09-28T15:56:01.940Z,5.50
2022-09-28T15:58:09.129Z,5.73
2022-09-28T16:00:25.241Z,6.20
2022-09-28T16:02:28.062Z,7.17
2022-09-28T16:04:38.607Z,5.23
2022-09-28T16:06:41.834Z,9.77
2022-09-28T16:08:46.042Z,7.70
2022-09-28T16:11:09.047Z,7.27
2022-09-28T16:13:16.010Z,9.20
2022-09-28T16:15:20.597Z,7.75
2022-09-28T16:17:29.771Z,4.57
2022-09-28T16:19:37.020Z,6.37
2022-09-28T16:21:44.967Z,6.60
2022-09-28T16:23:53.225Z,9.10
2022-09-28T16:25:58.671Z,6.77
2022-09-28T16:28:01.698Z,5.47
2022-09-28T16:30:15.123Z,9.63
2022-09-28T16:32:38.171Z,7.37
2022-09-28T16:34:40.845Z,5.33
2022-09-28T16:36:45.397Z,3.50
2022-09-28T16:38:48.622Z,5.70
2022-09-28T16:40:53.818Z,7.93
2022-09-28T16:42:59.891Z,12.90
2022-09-28T16:45:05.188Z,5.07
2022-09-28T16:47:07.901Z,6.77
2022-09-28T16:49:16.129Z,8.13
2022-09-28T16:51:19.000Z,7.70
2022-09-28T16:53:39.397Z,6.33
2022-09-28T16:55:42.091Z,5.90
2022-09-28T16:57:46.175Z,5.93
2022-09-28T16:59:48.849Z,9.80
2022-09-28T17:01:51.644Z,6.47
2022-09-28T17:03:54.385Z,7.70
2022-09-28T17:05:57.098Z,5.87
2022-09-28T17:08:01.324Z,24.57
2022-09-28T17:10:04.341Z,8.17
2022-09-28T17:12:10.099Z,8.50
2022-09-28T17:14:14.116Z,8.80
2022-09-28T17:16:18.346Z,12.00
2022-09-28T17:18:21.063Z,13.80
2022-09-28T17:20:24.759Z,16.93
2022-09-28T17:22:27.439Z,10.20
2022-09-28T17:24:30.121Z,13.17
2022-09-28T17:26:34.509Z,26.03
2022-09-28T17:28:37.849Z,11.47
2022-09-28T17:30:41.930Z,16.23
2022-09-28T17:32:45.791Z,15.33
2022-09-28T17:35:00.732Z,9.50
2022-09-28T17:37:03.700Z,9.00
2022-09-28T17:39:07.322Z,9.73
2022-09-28T17:41:11.851Z,14.47
2022-09-28T17:43:14.563Z,5.87
2022-09-28T17:45:18.113Z,9.77
2022-09-28T17:47:22.154Z,7.40
2022-09-28T17:49:24.875Z,11.77
2022-09-28T17:51:28.437Z,12.90
2022-09-28T17:53:31.110Z,9.70
2022-09-28T17:55:35.114Z,10.43
2022-09-28T17:57:37.805Z,8.27
2022-09-28T17:59:40.502Z,8.60
2022-09-28T18:01:43.248Z,13.20
2022-09-28T18:03:47.366Z,10.07
2022-09-28T18:05:52.670Z,11.53
2022-09-28T18:07:55.489Z,12.17
2022-09-28T18:09:58.452Z,9.70
2022-09-28T18:12:01.974Z,8.23
2022-09-28T18:14:09.087Z,10.57
2022-09-28T18:16:14.152Z,8.30
2022-09-28T18:18:17.073Z,14.37
2022-09-28T18:20:21.384Z,10.37
2022-09-28T18:22:24.379Z,14.10
2022-09-28T18:24:27.209Z,19.57
2022-09-28T18:26:30.048Z,19.63
2022-09-28T18:28:32.860Z,15.43
2022-09-28T18:30:38.245Z,13.07
2022-09-28T18:32:41.318Z,10.50
2022-09-28T18:34:44.066Z,13.30
2022-09-28T18:36:48.319Z,15.97
2022-09-28T18:38:51.071Z,17.80
2022-09-28T18:40:54.829Z,29.40
2022-09-28T18:42:57.611Z,15.23
2022-09-28T18:45:00.370Z,14.00
2022-09-28T18:47:03.255Z,13.07
2022-09-28T18:49:06.003Z,10.70
2022-09-28T18:51:09.426Z,11.33
2022-09-28T18:53:13.542Z,12.93
2022-09-28T18:55:16.427Z,12.70
2022-09-28T18:57:19.401Z,13.20
2022-09-28T18:59:22.459Z,13.43
2022-09-28T19:01:30.040Z,15.07
2022-09-28T19:03:33.782Z,15.53
2022-09-28T19:05:36.553Z,16.73
2022-09-28T19:07:39.314Z,13.53
2022-09-28T19:09:44.126Z,11.03
2022-09-28T19:11:46.933Z,20.43
2022-09-28T19:13:49.718Z,10.80
2022-09-28T19:15:52.556Z,16.50
2022-09-28T19:17:55.682Z,15.87
2022-09-28T19:19:58.778Z,13.10
2022-09-28T19:22:01.593Z,12.70
2022-09-28T19:24:04.622Z,11.37
2022-09-28T19:26:09.575Z,11.73
2022-09-28T19:28:12.378Z,15.23
2022-09-28T19:30:15.177Z,14.10
2022-09-28T19:32:17.973Z,10.33
2022-09-28T19:34:24.221Z,13.00
2022-09-28T19:36:28.452Z,13.00
2022-09-28T19:38:31.360Z,13.73
2022-09-28T19:40:34.833Z,12.17
2022-09-28T19:42:39.559Z,16.00
2022-09-28T19:44:42.375Z,10.17
2022-09-28T19:46:45.469Z,17.00
2022-09-28T19:48:48.498Z,13.30
2022-09-28T19:50:58.491Z,13.87
2022-09-28T19:53:01.739Z,17.67
2022-09-28T19:55:04.683Z,10.17
2022-09-28T19:57:08.895Z,12.60
2022-09-28T19:59:13.587Z,12.47
2022-09-28T20:01:16.477Z,12.70
2022-09-28T20:03:19.530Z,11.97
2022-09-28T20:05:22.694Z,12.67
2022-09-28T20:07:25.543Z,17.40
2022-09-28T20:09:28.321Z,10.03
2022-09-28T20:11:31.380Z,11.80
2022-09-28T20:13:35.143Z,15.87
2022-09-28T20:15:39.357Z,11.50
2022-09-28T20:17:42.146Z,11.20
2022-09-28T20:19:44.939Z,14.80
2022-09-28T20:21:48.188Z,14.00
2022-09-28T20:23:51.245Z,18.80
2022-09-28T20:25:54.067Z,12.53
2022-09-28T20:27:56.854Z,14.65
2022-09-28T20:29:59.907Z,14.80
2022-09-28T20:32:04.784Z,13.93
2022-09-28T20:34:07.609Z,13.00
2022-09-28T20:36:11.803Z,21.17
2022-09-28T20:38:14.570Z,15.30
2022-09-28T20:40:19.381Z,12.67
2022-09-28T20:42:22.221Z,12.37
2022-09-28T20:44:25.098Z,12.43
2022-09-28T20:46:28.013Z,12.00
2022-09-28T20:48:32.198Z,16.20
2022-09-28T20:50:34.984Z,23.90
2022-09-28T20:52:37.759Z,26.30
2022-09-28T20:54:40.527Z,16.13
2022-09-28T20:56:43.328Z,17.50
2022-09-28T20:58:46.107Z,16.43
2022-09-28T21:00:48.883Z,12.83
2022-09-28T21:02:54.722Z,9.90
2022-09-28T21:04:58.882Z,13.67
2022-09-28T21:07:01.823Z,13.80
2022-09-28T21:09:04.739Z,10.63
2022-09-28T21:11:08.262Z,15.97
2022-09-28T21:13:11.170Z,12.17
2022-09-28T21:15:14.034Z,16.90
2022-09-28T21:17:16.832Z,14.80
2022-09-28T21:19:20.546Z,13.70
2022-09-28T21:21:24.755Z,17.43
2022-09-28T21:23:27.523Z,12.10
2022-09-28T21:25:30.285Z,13.33
2022-09-28T21:27:33.253Z,12.00
2022-09-28T21:29:36.030Z,11.00
2022-09-28T21:31:40.260Z,11.07
2022-09-28T21:33:43.123Z,14.33
2022-09-28T21:35:45.913Z,17.53
2022-09-28T21:37:50.028Z,20.27
2022-09-28T21:39:52.921Z,12.63
2022-09-28T21:41:55.713Z,12.93
2022-09-28T21:43:58.620Z,12.80
2022-09-28T21:46:01.407Z,18.20
2022-09-28T21:48:04.208Z,16.83
2022-09-28T21:50:07.987Z,12.93
2022-09-28T21:52:10.790Z,14.53
2022-09-28T21:54:15.014Z,13.00
2022-09-28T21:56:17.915Z,13.10
2022-09-28T21:58:23.381Z,9.17
2022-09-28T22:00:26.209Z,15.77
2022-09-28T22:02:29.777Z,14.87
2022-09-28T22:04:32.641Z,15.23
2022-09-28T22:06:35.449Z,9.37
2022-09-28T22:08:38.479Z,10.93
2022-09-28T22:10:43.043Z,12.50
2022-09-28T22:12:45.860Z,11.23
2022-09-28T22:14:48.602Z,10.20
2022-09-28T22:16:51.397Z,11.20
2022-09-28T22:18:54.189Z,12.27
2022-09-28T22:21:00.590Z,14.77
2022-09-28T22:23:03.345Z,18.73
2022-09-28T22:25:07.136Z,9.97
2022-09-28T22:27:11.284Z,10.97
2022-09-28T22:29:14.048Z,25.80
2022-09-28T22:31:17.297Z,17.17
2022-09-28T22:33:20.122Z,17.30
2022-09-28T22:35:22.910Z,16.70
2022-09-28T22:37:27.970Z,11.40
2022-09-28T22:39:34.313Z,12.63
2022-09-28T22:41:40.178Z,10.73
2022-09-28T22:43:44.389Z,18.33
2022-09-28T22:45:47.263Z,15.60
2022-09-28T22:47:50.082Z,14.20
2022-09-28T22:49:52.857Z,11.73
2022-09-28T22:51:55.625Z,16.03
2022-09-28T22:53:58.523Z,13.70
2022-09-28T22:56:01.612Z,13.67
2022-09-28T22:58:04.484Z,20.60
2022-09-28T23:00:10.095Z,19.00
2022-09-28T23:02:12.910Z,21.37
2022-09-28T23:04:15.695Z,16.97
2022-09-28T23:06:20.964Z,18.10
2022-09-28T23:08:23.882Z,27.97
2022-09-28T23:10:26.678Z,16.63
2022-09-28T23:12:30.449Z,17.10
2022-09-28T23:14:33.242Z,18.20
2022-09-28T23:16:37.371Z,24.60
2022-09-28T23:18:40.774Z,19.80
2022-09-28T23:20:43.547Z,25.00
2022-09-28T23:22:47.435Z,17.17
2022-09-28T23:24:50.210Z,29.83
2022-09-28T23:26:52.981Z,23.60
2022-09-28T23:28:55.815Z,19.63
2022-09-28T23:30:58.722Z,19.60
2022-09-28T23:33:02.882Z,16.47
2022-09-28T23:35:06.527Z,21.17
2022-09-28T23:37:09.349Z,15.47
2022-09-28T23:39:12.675Z,15.63
2022-09-28T23:41:15.442Z,10.37
2022-09-28T23:43:18.325Z,12.83
2022-09-28T23:45:21.102Z,16.57
2022-09-28T23:47:23.930Z,12.67
2022-09-28T23:49:28.523Z,12.67
2022-09-28T23:51:31.860Z,21.50
2022-09-28T23:53:34.620Z,14.37
2022-09-28T23:55:37.398Z,17.00
2022-09-28T23:57:41.012Z,15.20
2022-09-28T23:59:43.773Z,18.50
